createdAt,value
2022-11-29T00:04:45.043Z,7.82
2022-11-29T00:09:46.684Z,7.76
2022-11-29T00:14:48.143Z,7.69
2022-11-29T00:19:49.598Z,7.66
2022-11-29T00:24:51.912Z,7.69
2022-11-29T00:29:53.344Z,7.68
2022-11-29T00:34:58.253Z,7.71
2022-11-29T00:40:00.885Z,7.76
2022-11-29T00:45:02.382Z,7.78
2022-11-29T00:50:04.676Z,7.74
2022-11-29T00:55:06.499Z,7.73
2022-11-29T01:00:08.512Z,7.71
2022-11-29T01:05:09.977Z,7.79
2022-11-29T01:10:11.439Z,7.77
2022-11-29T01:15:13.010Z,7.70
2022-11-29T01:20:15.480Z,7.80
2022-11-29T01:25:17.299Z,7.79
2022-11-29T01:30:19.219Z,7.73
2022-11-29T01:35:20.662Z,7.77
2022-11-29T01:40:22.154Z,7.80
2022-11-29T01:45:26.403Z,7.81
2022-11-29T01:50:27.880Z,7.83
2022-11-29T01:55:29.390Z,7.80
2022-11-29T02:00:30.885Z,7.74
2022-11-29T02:05:33.126Z,7.77
2022-11-29T02:10:46.583Z,7.77
2022-11-29T02:16:03.179Z,7.79
2022-11-29T02:21:07.378Z,7.81
2022-11-29T02:26:42.471Z,7.77
2022-11-29T02:32:00.827Z,7.57
2022-11-29T02:37:47.807Z,7.51
2022-11-29T02:43:18.229Z,7.43
2022-11-29T02:48:19.522Z,7.41
2022-11-29T02:53:27.835Z,7.39
2022-11-29T02:58:47.348Z,7.38
2022-11-29T03:04:27.117Z,7.33
2022-11-29T03:09:45.640Z,7.39
2022-11-29T03:14:57.195Z,7.43
2022-11-29T03:20:06.208Z,7.47
2022-11-29T03:25:22.174Z,7.45
2022-11-29T03:30:23.780Z,7.44
2022-11-29T03:35:46.279Z,7.40
2022-11-29T03:40:50.639Z,7.39
2022-11-29T03:46:02.099Z,7.38
2022-11-29T03:51:11.339Z,7.36
2022-11-29T03:56:27.285Z,7.36
2022-11-29T04:01:54.001Z,7.29
2022-11-29T04:07:26.973Z,7.24
2022-11-29T04:12:38.479Z,7.19
2022-11-29T04:17:58.301Z,7.17
2022-11-29T04:23:17.947Z,7.13
2022-11-29T04:28:43.503Z,7.06
2022-11-29T04:34:03.579Z,7.09
2022-11-29T04:39:04.880Z,7.13
2022-11-29T04:44:27.317Z,7.05
2022-11-29T04:49:44.802Z,7.00
2022-11-29T04:54:59.889Z,7.00
2022-11-29T05:00:15.254Z,6.97
2022-11-29T05:05:31.976Z,6.98
2022-11-29T05:10:59.610Z,6.98
2022-11-29T05:16:37.133Z,7.01
2022-11-29T05:22:15.956Z,6.99
2022-11-29T05:27:36.654Z,6.95
2022-11-29T05:32:55.712Z,6.95
2022-11-29T05:38:02.474Z,7.00
2022-11-29T05:43:19.479Z,6.95
2022-11-29T05:48:29.597Z,6.98
2022-11-29T05:53:42.932Z,6.99
2022-11-29T05:59:05.409Z,6.98
2022-11-29T06:04:22.039Z,6.96
2022-11-29T06:09:32.230Z,6.98
2022-11-29T06:14:52.462Z,7.00
2022-11-29T06:20:08.567Z,7.00
2022-11-29T06:25:21.369Z,6.99
2022-11-29T06:30:55.238Z,6.96
2022-11-29T06:36:19.910Z,6.94
2022-11-29T06:41:24.339Z,6.95
2022-11-29T06:46:56.000Z,6.92
2022-11-29T06:52:09.977Z,6.90
2022-11-29T06:58:10.080Z,6.92
2022-11-29T07:03:47.838Z,6.95
2022-11-29T07:08:53.840Z,6.95
2022-11-29T07:13:55.825Z,6.97
2022-11-29T07:19:10.166Z,6.98
2022-11-29T07:24:20.315Z,6.94
2022-11-29T07:29:29.544Z,6.91
2022-11-29T07:34:47.511Z,6.99
2022-11-29T07:40:15.978Z,7.00
2022-11-29T07:45:30.730Z,7.02
2022-11-29T07:50:32.600Z,7.07
2022-11-29T07:55:34.211Z,7.09
2022-11-29T08:00:35.727Z,7.13
2022-11-29T08:05:38.252Z,7.21
2022-11-29T08:10:39.680Z,7.29
2022-11-29T08:15:45.720Z,7.37
2022-11-29T08:20:47.129Z,7.40
2022-11-29T08:25:48.588Z,7.46
2022-11-29T08:30:50.042Z,7.47
2022-11-29T08:35:51.444Z,7.48
2022-11-29T08:40:52.907Z,7.48
2022-11-29T08:45:54.367Z,7.55
2022-11-29T08:50:56.621Z,7.56
2022-11-29T08:55:59.575Z,7.61
2022-11-29T09:01:01.074Z,7.63
2022-11-29T09:06:14.031Z,7.58
2022-11-29T09:11:18.501Z,7.62
2022-11-29T09:16:22.475Z,7.59
2022-11-29T09:21:25.944Z,7.61
2022-11-29T09:26:30.263Z,7.69
2022-11-29T09:31:33.155Z,7.72
2022-11-29T09:36:34.637Z,7.76
2022-11-29T09:42:07.535Z,7.81
2022-11-29T09:47:18.552Z,7.94
2022-11-29T09:52:32.113Z,8.03
2022-11-29T09:57:33.675Z,8.02
2022-11-29T10:02:43.659Z,8.05
2022-11-29T10:08:03.380Z,8.10
2022-11-29T10:13:18.824Z,8.20
2022-11-29T10:18:35.020Z,8.24
2022-11-29T10:23:41.754Z,8.26
2022-11-29T10:28:45.021Z,8.24
2022-11-29T10:33:47.374Z,8.30
2022-11-29T10:38:50.284Z,8.28
2022-11-29T10:43:52.021Z,8.27
2022-11-29T10:48:54.026Z,8.27
2022-11-29T10:53:56.555Z,8.28
2022-11-29T10:59:03.902Z,8.30
2022-11-29T11:04:06.850Z,8.35
2022-11-29T11:09:24.936Z,8.39
2022-11-29T11:14:28.252Z,8.38
2022-11-29T11:19:34.540Z,8.43
2022-11-29T11:24:41.828Z,8.53
2022-11-29T11:29:44.739Z,8.58
2022-11-29T11:35:00.087Z,8.66
2022-11-29T11:40:26.748Z,8.71
2022-11-29T11:45:33.892Z,8.67
2022-11-29T11:50:51.536Z,8.64
2022-11-29T11:56:01.486Z,8.55
2022-11-29T12:01:11.780Z,8.60
2022-11-29T12:06:19.607Z,8.56
2022-11-29T12:11:24.436Z,8.52
2022-11-29T12:16:33.067Z,8.53
2022-11-29T12:21:42.355Z,8.53
2022-11-29T12:26:59.666Z,8.53
2022-11-29T12:32:13.015Z,8.49
2022-11-29T12:37:26.884Z,8.51
2022-11-29T12:42:50.254Z,8.51
2022-11-29T12:48:03.003Z,8.50
2022-11-29T12:53:33.412Z,8.50
2022-11-29T12:59:01.110Z,8.47
2022-11-29T13:04:21.387Z,8.35
2022-11-29T13:09:28.687Z,8.33
2022-11-29T13:14:43.917Z,8.31
2022-11-29T13:19:55.339Z,8.28
2022-11-29T13:25:06.101Z,8.28
2022-11-29T13:30:13.281Z,8.24
2022-11-29T13:35:14.656Z,8.25
2022-11-29T13:40:23.385Z,8.10
2022-11-29T13:45:33.806Z,8.04
2022-11-29T13:50:35.177Z,8.01
2022-11-29T13:55:44.353Z,8.15
2022-11-29T14:00:45.745Z,8.16
2022-11-29T14:05:52.554Z,8.11
2022-11-29T14:11:14.045Z,8.13
2022-11-29T14:16:32.305Z,8.06
2022-11-29T14:22:01.419Z,8.05
2022-11-29T14:27:05.673Z,8.06
2022-11-29T14:32:22.154Z,8.08
2022-11-29T14:37:40.027Z,8.10
2022-11-29T14:42:47.154Z,8.11
2022-11-29T14:47:49.332Z,8.14
2022-11-29T14:52:51.698Z,8.19
2022-11-29T14:58:02.022Z,8.18
2022-11-29T15:03:21.032Z,8.11
2022-11-29T15:08:48.726Z,8.04
2022-11-29T15:14:47.259Z,7.97
2022-11-29T15:20:07.336Z,7.77
2022-11-29T15:25:13.300Z,7.67
2022-11-29T15:30:27.411Z,7.56
2022-11-29T15:35:29.183Z,7.54
2022-11-29T15:40:31.396Z,7.55
2022-11-29T15:45:36.226Z,7.49
2022-11-29T15:50:43.623Z,7.47
2022-11-29T15:55:48.003Z,7.49
2022-11-29T16:00:50.484Z,7.52
2022-11-29T16:06:05.395Z,7.53
2022-11-29T16:11:09.240Z,7.53
2022-11-29T16:16:19.288Z,7.55
2022-11-29T16:21:26.801Z,7.58
2022-11-29T16:44:06.820Z,7.53
2022-11-29T17:05:19.733Z,7.31
2022-11-29T17:36:10.488Z,7.28
2022-11-29T17:41:14.513Z,7.28
2022-11-29T17:46:19.076Z,7.42
2022-11-29T17:51:50.521Z,7.41
2022-11-29T17:56:45.431Z,7.39
2022-11-29T18:01:47.147Z,7.45
2022-11-29T18:06:48.980Z,7.47
2022-11-29T18:11:50.701Z,7.46
2022-11-29T18:16:52.365Z,7.48
2022-11-29T18:21:53.963Z,7.44
2022-11-29T18:26:55.382Z,7.44
2022-11-29T18:31:56.766Z,7.44
2022-11-29T18:36:58.145Z,7.48
2022-11-29T18:41:59.610Z,7.45
2022-11-29T18:47:01.004Z,7.47
2022-11-29T18:52:02.495Z,7.48
2022-11-29T18:57:03.867Z,7.43
2022-11-29T19:02:05.575Z,7.44
2022-11-29T19:07:07.102Z,7.40
2022-11-29T19:12:08.572Z,7.41
2022-11-29T19:17:10.044Z,7.35
2022-11-29T19:22:11.558Z,7.34
2022-11-29T19:27:12.995Z,7.33
2022-11-29T19:32:14.430Z,7.31
2022-11-29T19:37:18.132Z,7.36
2022-11-29T19:42:19.572Z,7.35
2022-11-29T19:47:20.955Z,7.38
2022-11-29T19:52:22.527Z,7.39
2022-11-29T19:57:24.050Z,7.39
2022-11-29T20:02:25.656Z,7.43
2022-11-29T20:07:27.174Z,7.36
2022-11-29T20:12:30.046Z,7.35
2022-11-29T20:17:31.537Z,7.37
2022-11-29T20:22:33.031Z,7.30
2022-11-29T20:27:34.525Z,7.30
2022-11-29T20:32:36.092Z,7.31
2022-11-29T20:37:56.251Z,7.28
2022-11-29T20:43:15.363Z,7.29
2022-11-29T20:48:20.867Z,7.25
2022-11-29T20:53:31.858Z,7.15
2022-11-29T20:58:33.905Z,7.06
2022-11-29T21:03:35.485Z,7.10
2022-11-29T21:08:36.959Z,7.10
2022-11-29T21:13:38.953Z,7.08
2022-11-29T21:18:40.719Z,7.09
2022-11-29T21:23:57.032Z,7.09
2022-11-29T21:29:14.159Z,7.07
2022-11-29T21:34:15.631Z,6.96
2022-11-29T21:39:17.111Z,6.95
2022-11-29T21:44:18.564Z,6.97
2022-11-29T21:49:20.143Z,6.96
2022-11-29T21:54:21.639Z,6.95
2022-11-29T21:59:23.092Z,6.99
2022-11-29T22:04:24.978Z,7.00
2022-11-29T22:09:26.383Z,7.02
2022-11-29T22:14:27.809Z,7.01
2022-11-29T22:19:31.607Z,6.97
2022-11-29T22:24:35.220Z,6.93
2022-11-29T22:29:36.704Z,6.87
2022-11-29T22:34:38.155Z,6.81
2022-11-29T22:39:39.592Z,6.82
2022-11-29T22:44:41.903Z,6.80
2022-11-29T22:49:43.363Z,6.77
2022-11-29T22:54:45.081Z,6.79
2022-11-29T22:59:46.856Z,6.80
2022-11-29T23:04:48.989Z,6.74
2022-11-29T23:09:50.582Z,6.66
2022-11-29T23:14:56.368Z,6.54
2022-11-29T23:19:58.370Z,6.56
2022-11-29T23:24:59.823Z,6.56
2022-11-29T23:30:01.246Z,6.54
2022-11-29T23:35:02.746Z,6.50
2022-11-29T23:40:05.016Z,6.47
2022-11-29T23:45:06.597Z,6.49
2022-11-29T23:50:08.946Z,6.45
2022-11-29T23:55:12.200Z,6.40
